Time;durP1;ratioP1;P1;durP2;ratioP2;P2;SDS_P1;SDS_P2;PMS_P1;PMS_P2;Temp;Humidity;BMP_temperature;BMP_pressure;BME280_temperature;BME280_humidity;BME280_pressure;Samples;Min_cycle;Max_cycle;Signal;HPM_P1;HPM_P2
2022/07/19 00:00:14;;;;;;;4.17;3.77;;;;;;;14.22;76.06;99496.50;2171498;81;20886;-79
2022/07/19 00:03:16;;;;;;;6.90;3.85;;;;;;;14.21;76.33;99487.30;2171082;81;20984;-79
2022/07/19 00:06:15;;;;;;;5.33;3.70;;;;;;;14.24;76.30;99492.14;2171276;81;20956;-78
2022/07/19 00:09:16;;;;;;;7.10;3.85;;;;;;;14.23;76.31;99484.26;2171425;81;21052;-79
2022/07/19 00:12:16;;;;;;;11.70;6.28;;;;;;;14.20;76.52;99480.30;2171738;81;20917;-79
2022/07/19 00:15:16;;;;;;;5.05;3.67;;;;;;;14.23;76.90;99486.88;2171594;81;20917;-78
2022/07/19 00:18:17;;;;;;;6.40;3.98;;;;;;;14.27;76.79;99486.91;2171216;81;21566;-79
2022/07/19 00:21:17;;;;;;;8.15;4.45;;;;;;;14.28;76.71;99494.36;2170888;81;20992;-79
2022/07/19 00:24:18;;;;;;;5.20;3.55;;;;;;;14.27;76.74;99493.91;2171097;81;20985;-78
2022/07/19 00:27:18;;;;;;;5.67;4.35;;;;;;;14.29;76.93;99489.55;2171577;80;21245;-78
2022/07/19 00:30:18;;;;;;;4.92;4.08;;;;;;;14.30;76.93;99492.63;2171072;81;20976;-78
2022/07/19 00:33:19;;;;;;;5.35;4.20;;;;;;;14.33;77.22;99484.77;2171123;81;20932;-78
2022/07/19 00:36:19;;;;;;;4.87;4.22;;;;;;;14.35;77.50;99482.59;2171453;81;20929;-79
2022/07/19 00:39:20;;;;;;;5.87;4.67;;;;;;;14.44;77.63;99491.44;2171060;81;21023;-79
2022/07/19 00:42:20;;;;;;;5.83;4.10;;;;;;;14.47;77.66;99494.97;2170561;82;20948;-79
2022/07/19 00:45:20;;;;;;;4.72;4.12;;;;;;;14.50;77.70;99496.73;2171224;81;21000;-79
2022/07/19 00:48:21;;;;;;;4.97;4.47;;;;;;;14.52;77.64;99489.30;2171271;81;21285;-79
2022/07/19 00:51:21;;;;;;;6.37;3.95;;;;;;;14.57;77.81;99491.53;2170907;82;20956;-79
2022/07/19 00:54:22;;;;;;;8.38;4.42;;;;;;;14.63;77.66;99489.38;2171370;81;20961;-80
2022/07/19 00:57:22;;;;;;;9.20;4.15;;;;;;;14.65;77.69;99493.77;2171307;82;21312;-80
2022/07/19 01:00:22;;;;;;;11.25;4.95;;;;;;;14.67;77.72;99495.09;2171136;81;20913;-80
2022/07/19 01:03:23;;;;;;;8.93;3.80;;;;;;;14.66;77.64;99493.33;2171145;81;20922;-78
2022/07/19 01:06:23;;;;;;;26.48;6.75;;;;;;;14.70;77.74;99488.97;2171059;81;21324;-78
2022/07/19 01:09:24;;;;;;;9.15;4.35;;;;;;;14.71;77.84;99478.47;2171495;81;21004;-79
2022/07/19 01:12:24;;;;;;;6.50;4.00;;;;;;;14.73;77.63;99483.73;2170552;81;21305;-78
2022/07/19 01:15:25;;;;;;;5.97;4.10;;;;;;;14.74;77.66;99488.11;2170563;81;20929;-78
2022/07/19 01:18:25;;;;;;;7.00;4.40;;;;;;;14.73;77.66;99495.55;2170723;81;21011;-78
2022/07/19 01:21:26;;;;;;;34.48;5.70;;;;;;;14.69;77.73;99495.09;2171043;81;21004;-79
2022/07/19 01:24:26;;;;;;;11.33;4.65;;;;;;;14.66;77.85;99492.89;2171358;81;20972;-78
2022/07/19 01:27:26;;;;;;;31.52;5.85;;;;;;;14.67;77.94;99491.14;2170972;81;20932;-78
2022/07/19 01:30:26;;;;;;;10.95;4.50;;;;;;;14.63;77.84;99484.99;2170446;81;21305;-79
2022/07/19 01:33:27;;;;;;;9.83;4.78;;;;;;;14.63;78.03;99481.05;2170923;81;20889;-81
2022/07/19 01:36:27;;;;;;;37.55;5.90;;;;;;;14.62;78.09;99486.30;2171248;80;20917;-77
2022/07/19 01:39:28;;;;;;;11.45;5.08;;;;;;;14.60;78.13;99482.34;2171167;81;21276;-79
2022/07/19 01:42:28;;;;;;;6.55;4.00;;;;;;;14.58;77.99;99481.89;2171285;81;20970;-79
2022/07/19 01:45:28;;;;;;;5.53;3.67;;;;;;;14.56;78.05;99482.32;2171131;82;20943;-78
2022/07/19 01:48:29;;;;;;;6.75;3.87;;;;;;;14.50;77.85;99481.85;2170871;82;20932;-78
2022/07/19 01:51:29;;;;;;;7.87;3.92;;;;;;;14.45;77.92;99482.25;2171428;81;20969;-81
2022/07/19 01:54:30;;;;;;;119.53;12.15;;;;;;;14.43;78.00;99480.05;2171410;81;20929;-80
2022/07/19 01:57:30;;;;;;;6.40;4.72;;;;;;;14.43;78.10;99481.37;2171128;81;20933;-80
2022/07/19 02:00:31;;;;;;;5.17;4.50;;;;;;;14.43;78.10;99480.05;2171444;81;20956;-80
2022/07/19 02:03:31;;;;;;;4.30;3.90;;;;;;;14.42;78.17;99480.01;2171539;82;20873;-81
2022/07/19 02:06:32;;;;;;;6.97;4.03;;;;;;;14.43;78.33;99487.05;2170699;82;20976;-81
2022/07/19 02:09:32;;;;;;;20.43;5.17;;;;;;;14.45;78.48;99483.56;2170893;81;20924;-81
2022/07/19 02:12:33;;;;;;;27.95;5.85;;;;;;;14.48;78.56;99491.91;2170638;81;20906;-81
2022/07/19 02:15:33;;;;;;;7.33;4.87;;;;;;;14.52;78.61;99489.74;2170792;82;20909;-81
2022/07/19 02:18:33;;;;;;;7.60;4.37;;;;;;;14.54;78.58;99494.56;2170739;81;21351;-81
2022/07/19 02:21:34;;;;;;;7.80;4.65;;;;;;;14.51;78.59;99488.86;2170930;81;20989;-78
2022/07/19 02:24:34;;;;;;;14.75;5.30;;;;;;;14.49;78.56;99491.03;2171035;82;20952;-81
2022/07/19 02:27:34;;;;;;;6.90;4.40;;;;;;;14.50;78.71;99494.11;2171565;81;20890;-81
2022/07/19 02:30:35;;;;;;;5.42;4.67;;;;;;;14.48;78.71;99485.34;2171515;81;20910;-81
2022/07/19 02:33:35;;;;;;;13.38;5.20;;;;;;;14.46;78.74;99487.08;2171464;81;20969;-81
2022/07/19 02:36:36;;;;;;;7.10;4.70;;;;;;;14.45;78.91;99488.82;2171600;82;20968;-85
2022/07/19 02:39:36;;;;;;;11.18;4.65;;;;;;;14.46;79.76;99487.95;2171205;81;20901;-83
2022/07/19 02:42:36;;;;;;;9.90;4.60;;;;;;;15.55;84.61;99474.85;2170173;81;20960;-83
2022/07/19 02:45:37;;;;;;;8.03;4.30;;;;;;;16.76;81.91;99471.39;2170664;81;20965;-83
2022/07/19 02:48:37;;;;;;;20.57;6.45;;;;;;;17.61;79.00;99466.17;2170759;81;20929;-83
2022/07/19 02:51:38;;;;;;;14.28;4.60;;;;;;;18.20;75.92;99458.69;2170851;81;20929;-83
2022/07/19 02:54:38;;;;;;;28.23;5.35;;;;;;;18.58;73.85;99458.34;2171316;81;21367;-83
2022/07/19 02:57:39;;;;;;;7.78;4.30;;;;;;;18.88;72.04;99467.29;2170410;81;20973;-82
2022/07/19 03:00:39;;;;;;;7.97;4.37;;;;;;;18.80;68.34;99461.22;2170868;81;20968;-82
2022/07/19 03:03:49;;;;;;;7.50;3.87;;;;;;;17.87;67.71;99471.30;2170961;81;20937;-81
2022/07/19 03:06:46;;;;;;;8.03;4.33;;;;;;;17.12;68.46;99468.17;2171594;81;20969;-81
2022/07/19 03:09:47;;;;;;;6.10;4.17;;;;;;;16.62;69.63;99476.23;2171856;81;20948;-81
2022/07/19 03:12:46;;;;;;;14.33;4.30;;;;;;;16.25;70.49;99470.99;2170671;81;20960;-82
2022/07/19 03:15:47;;;;;;;5.20;4.70;;;;;;;15.94;71.50;99479.34;2170519;81;20925;-81
2022/07/19 03:18:47;;;;;;;5.85;4.67;;;;;;;15.74;72.30;99481.97;2170391;81;20964;-81
2022/07/19 03:21:48;;;;;;;8.40;4.37;;;;;;;15.59;73.08;99483.22;2170455;81;20973;-82
2022/07/19 03:24:48;;;;;;;29.57;6.97;;;;;;;15.53;73.77;99485.81;2170880;81;21003;-81
2022/07/19 03:27:48;;;;;;;7.92;4.70;;;;;;;15.49;74.22;99482.73;2170515;81;20964;-79
2022/07/19 03:30:49;;;;;;;11.08;4.35;;;;;;;15.48;74.45;99483.17;2169952;81;20933;-78
2022/07/19 03:36:53;;;;;;;;;;;;;;;15.47;74.94;99488.42;2167103;82;20889;-81
2022/07/19 03:39:54;;;;;;;8.85;4.62;;;;;;;15.46;75.43;99494.56;2169573;81;20098;-80
2022/07/19 03:42:54;;;;;;;9.70;4.62;;;;;;;15.45;75.71;99494.12;2169921;82;20949;-78
2022/07/19 03:45:55;;;;;;;10.48;5.05;;;;;;;15.48;76.00;99502.90;2169140;81;21577;-83
2022/07/19 03:48:55;;;;;;;11.10;4.67;;;;;;;15.51;76.05;99503.34;2169542;81;20960;-81
2022/07/19 03:51:55;;;;;;;17.75;5.78;;;;;;;15.55;76.39;99505.11;2169914;81;20945;-80
2022/07/19 03:54:56;;;;;;;8.13;4.50;;;;;;;15.65;76.74;99504.32;2169954;81;20940;-80
2022/07/19 03:57:56;;;;;;;44.58;6.37;;;;;;;15.72;76.61;99507.84;2169756;81;20920;-84
2022/07/19 04:00:57;;;;;;;13.68;5.75;;;;;;;15.77;77.41;99500.83;2169950;81;20902;-81
2022/07/19 04:03:57;;;;;;;8.78;5.42;;;;;;;16.30;76.85;99507.43;2169735;82;20937;-80
2022/07/19 04:06:57;;;;;;;10.55;4.75;;;;;;;16.34;75.90;99503.03;2169716;81;21344;-80
2022/07/19 04:09:58;;;;;;;11.60;4.85;;;;;;;16.34;75.99;99503.91;2169925;81;20922;-81
2022/07/19 04:12:59;;;;;;;35.98;7.12;;;;;;;16.38;75.74;99505.66;2170330;81;20957;-82
2022/07/19 04:15:59;;;;;;;10.82;4.60;;;;;;;16.45;75.67;99503.46;2170198;81;20937;-84
2022/07/19 04:18:59;;;;;;;9.40;4.72;;;;;;;16.52;75.36;99505.68;2170160;81;20929;-82
2022/07/19 04:21:59;;;;;;;9.95;4.75;;;;;;;16.54;75.55;99502.16;2170415;81;20941;-81
2022/07/19 04:25:02;;;;;;;11.15;4.97;;;;;;;16.60;75.71;99493.80;2171695;81;20944;-80
2022/07/19 04:28:01;;;;;;;79.12;9.35;;;;;;;16.69;75.85;99494.70;2171871;82;20958;-81
2022/07/19 04:31:01;;;;;;;7.72;5.17;;;;;;;16.80;75.80;99497.30;2171536;81;20948;-81
2022/07/19 04:34:01;;;;;;;1999.90;251.90;;;;;;;16.91;76.00;99489.36;2171841;82;20941;-83
2022/07/19 04:37:01;;;;;;;56.70;10.65;;;;;;;17.04;76.12;99491.06;2171673;81;20921;-82
2022/07/19 04:40:02;;;;;;;13.58;5.80;;;;;;;17.28;75.83;99495.36;2171585;81;20981;-81
2022/07/19 04:43:02;;;;;;;6.87;4.75;;;;;;;17.39;75.58;99489.17;2171294;81;20976;-81
2022/07/19 04:46:03;;;;;;;16.62;4.83;;;;;;;17.55;75.24;99488.64;2172233;81;20952;-84
2022/07/19 04:49:03;;;;;;;9.58;5.33;;;;;;;17.74;74.84;99496.91;2172220;81;20925;-82
2022/07/19 04:52:03;;;;;;;10.05;4.97;;;;;;;17.89;74.74;99501.66;2172370;82;20925;-83
2022/07/19 04:55:04;;;;;;;7.47;5.10;;;;;;;18.02;74.90;99490.98;2171932;81;20898;-81
2022/07/19 04:58:04;;;;;;;6.50;4.42;;;;;;;18.18;75.05;99490.86;2171136;82;20929;-80
2022/07/19 05:01:05;;;;;;;5.60;4.95;;;;;;;18.29;74.44;99492.55;2170785;81;21545;-82
2022/07/19 05:04:05;;;;;;;15.88;5.25;;;;;;;18.42;73.96;99488.02;2171507;81;21609;-81
2022/07/19 05:07:06;;;;;;;74.80;7.92;;;;;;;18.56;73.76;99489.20;2171241;81;20969;-84
2022/07/19 05:10:06;;;;;;;41.92;6.83;;;;;;;18.69;73.83;99484.26;2172098;81;20928;-81
2022/07/19 05:13:06;;;;;;;7.55;4.50;;;;;;;18.81;73.62;99490.73;2171445;81;21031;-82
2022/07/19 05:16:07;;;;;;;8.73;4.60;;;;;;;18.96;72.93;99494.97;2170762;81;20933;-81
2022/07/19 05:19:07;;;;;;;20.43;13.80;;;;;;;19.09;72.87;99496.16;2171091;81;20960;-83
2022/07/19 05:22:08;;;;;;;47.60;8.50;;;;;;;19.30;72.44;99494.14;2169994;81;20945;-82
2022/07/19 05:25:09;;;;;;;28.00;5.53;;;;;;;19.51;71.62;99491.66;2168755;81;20949;-82
2022/07/19 05:28:08;;;;;;;9.38;4.75;;;;;;;19.71;71.83;99488.30;2169256;81;21479;-81
2022/07/19 05:31:09;;;;;;;12.20;5.30;;;;;;;19.93;70.63;99488.84;2170105;81;20929;-80
2022/07/19 05:34:09;;;;;;;10.93;5.50;;;;;;;20.24;69.15;99495.88;2170070;82;20948;-82
2022/07/19 05:37:10;;;;;;;14.28;5.53;;;;;;;20.60;67.72;99489.08;2170195;81;21360;-79
2022/07/19 05:40:10;;;;;;;13.03;5.25;;;;;;;20.95;67.25;99486.66;2170336;81;20925;-77
2022/07/19 05:43:10;;;;;;;48.63;8.93;;;;;;;21.29;65.51;99477.58;2170615;81;21040;-78
2022/07/19 05:46:11;;;;;;;24.60;7.92;;;;;;;21.52;63.96;99482.84;2170265;81;21545;-77
2022/07/19 05:49:11;;;;;;;14.43;5.15;;;;;;;21.70;63.05;99477.59;2169491;81;20981;-79
2022/07/19 05:52:11;;;;;;;13.45;6.00;;;;;;;21.88;62.92;99475.83;2171033;81;20901;-79
2022/07/19 05:55:12;;;;;;;33.70;6.30;;;;;;;22.07;62.44;99473.63;2170800;82;21422;-78
2022/07/19 05:58:12;;;;;;;40.48;7.37;;;;;;;22.29;61.52;99473.97;2169818;82;21280;-78
2022/07/19 06:01:19;;;;;;;19.30;7.05;;;;;;;22.47;59.82;99478.80;2169504;81;20929;-78
2022/07/19 06:04:19;;;;;;;19.32;7.60;;;;;;;22.59;58.86;99474.52;2169942;81;20945;-78
2022/07/19 06:07:20;;;;;;;108.12;17.65;;;;;;;22.80;57.26;99477.09;2169324;82;21313;-78
2022/07/19 06:10:20;;;;;;;20.77;7.83;;;;;;;23.14;56.01;99479.66;2169581;81;20909;-77
2022/07/19 06:13:20;;;;;;;15.55;7.22;;;;;;;23.30;54.63;99476.97;2169774;81;20964;-78
2022/07/19 06:16:21;;;;;;;22.25;7.35;;;;;;;23.45;54.40;99472.54;2169014;81;20937;-78
2022/07/19 06:19:21;;;;;;;14.33;6.58;;;;;;;23.79;53.11;99468.39;2168486;82;20889;-77
2022/07/19 06:22:22;;;;;;;13.88;5.97;;;;;;;24.08;52.00;99470.11;2169220;81;21447;-77
2022/07/19 06:25:22;;;;;;;13.38;6.62;;;;;;;24.35;50.92;99467.05;2170518;81;21399;-77
2022/07/19 06:28:22;;;;;;;18.75;7.17;;;;;;;24.56;51.04;99475.23;2170598;81;20913;-78
2022/07/19 06:31:23;;;;;;;14.65;7.05;;;;;;;25.01;49.85;99471.41;2171234;82;20878;-78
2022/07/19 06:34:23;;;;;;;13.70;6.60;;;;;;;25.42;48.75;99468.53;2170454;81;20946;-77
2022/07/19 06:37:24;;;;;;;12.70;6.03;;;;;;;25.60;47.86;99469.61;2170960;81;21300;-78
2022/07/19 06:40:24;;;;;;;11.90;6.50;;;;;;;25.59;47.19;99470.55;2171245;81;20933;-79
2022/07/19 06:43:25;;;;;;;16.25;7.05;;;;;;;25.61;47.82;99471.36;2171969;81;21016;-79
2022/07/19 06:46:25;;;;;;;8.18;5.40;;;;;;;25.68;47.46;99472.89;2172107;81;20965;-78
2022/07/19 06:49:27;;;;;;;11.88;5.17;;;;;;;25.71;46.85;99476.78;2171757;81;20904;-78
2022/07/19 06:52:27;;;;;;;7.87;5.22;;;;;;;25.79;45.86;99474.67;2172099;81;20936;-79
2022/07/19 06:55:27;;;;;;;9.63;5.17;;;;;;;25.81;45.31;99474.14;2170711;81;20901;-78
2022/07/19 06:58:29;;;;;;;11.38;5.72;;;;;;;25.97;45.47;99470.38;2169562;81;20980;-78
2022/07/19 07:01:28;;;;;;;8.95;5.08;;;;;;;26.18;45.33;99469.98;2170821;81;20921;-78
2022/07/19 07:04:28;;;;;;;10.72;5.15;;;;;;;26.26;45.42;99470.07;2170964;81;20941;-77
2022/07/19 07:07:29;;;;;;;12.65;5.03;;;;;;;26.33;44.58;99464.02;2170791;81;21348;-79
2022/07/19 07:10:29;;;;;;;11.00;5.03;;;;;;;26.36;44.57;99460.34;2171366;82;21290;-78
2022/07/19 07:13:30;;;;;;;13.78;5.25;;;;;;;26.36;44.57;99469.24;2170724;81;20968;-78
2022/07/19 07:16:30;;;;;;;9.43;4.80;;;;;;;26.32;44.53;99467.17;2170977;81;20965;-79
2022/07/19 07:19:30;;;;;;;6.55;4.22;;;;;;;26.41;44.57;99461.89;2170934;81;21237;-78
2022/07/19 07:22:31;;;;;;;12.23;4.97;;;;;;;26.54;44.32;99456.88;2169343;81;20917;-79
2022/07/19 07:25:31;;;;;;;8.70;4.58;;;;;;;26.62;44.22;99462.30;2168765;81;20944;-78
2022/07/19 07:28:32;;;;;;;8.85;4.47;;;;;;;26.67;43.42;99455.40;2168069;81;21397;-78
2022/07/19 07:31:32;;;;;;;8.35;4.33;;;;;;;26.66;42.96;99465.71;2168592;81;20937;-78
2022/07/19 07:34:32;;;;;;;9.60;4.05;;;;;;;26.53;42.67;99457.81;2168842;82;20929;-77
2022/07/19 07:37:33;;;;;;;10.45;4.53;;;;;;;26.61;43.27;99457.01;2169762;81;20960;-78
2022/07/19 07:40:33;;;;;;;9.93;4.40;;;;;;;26.85;42.43;99457.73;2169001;81;20929;-78
2022/07/19 07:43:34;;;;;;;5.67;4.15;;;;;;;27.02;42.41;99464.61;2168340;81;20989;-79
2022/07/19 07:46:34;;;;;;;7.60;3.80;;;;;;;27.28;42.34;99470.97;2169673;81;21020;-79
2022/07/19 07:49:34;;;;;;;8.88;4.15;;;;;;;27.28;42.34;99470.97;2169589;81;21565;-79
2022/07/19 07:52:35;;;;;;;6.42;4.10;;;;;;;27.43;42.16;99473.88;2169572;81;20964;-80
2022/07/19 07:55:39;;;;;;;6.60;3.87;;;;;;;27.51;41.76;99472.58;2170198;81;20901;-80
2022/07/19 07:58:37;;;;;;;11.03;4.65;;;;;;;27.50;41.88;99472.65;2168744;81;20962;-79
2022/07/19 08:01:37;;;;;;;6.08;4.12;;;;;;;27.34;41.69;99475.18;2169140;80;20941;-79
2022/07/19 08:04:37;;;;;;;10.40;4.47;;;;;;;27.20;41.53;99473.14;2169283;81;20961;-79
2022/07/19 08:07:37;;;;;;;6.22;4.10;;;;;;;27.19;42.23;99473.21;2169649;82;20950;-82
2022/07/19 08:10:40;;;;;;;;;;;;;;;27.14;42.16;99471.21;2171147;82;20893;-79
2022/07/19 08:13:41;;;;;;;5.80;4.08;;;;;;;27.45;40.89;99473.34;2168724;81;20086;-78
2022/07/19 08:16:41;;;;;;;12.70;4.05;;;;;;;27.56;41.59;99471.02;2168841;82;21261;-78
2022/07/19 08:19:41;;;;;;;10.82;4.40;;;;;;;27.87;39.79;99471.81;2168993;81;20909;-78
2022/07/19 08:22:42;;;;;;;6.17;3.70;;;;;;;28.08;39.56;99472.09;2168161;81;20933;-80
2022/07/19 08:25:42;;;;;;;7.25;3.70;;;;;;;28.28;38.54;99469.79;2168785;81;21428;-78
2022/07/19 08:28:43;;;;;;;7.28;3.90;;;;;;;28.43;38.45;99475.72;2168456;81;20921;-79
2022/07/19 08:31:43;;;;;;;4.85;3.47;;;;;;;28.31;37.43;99470.98;2169155;82;20957;-80
2022/07/19 08:34:43;;;;;;;8.78;3.62;;;;;;;28.33;38.36;99470.90;2168830;81;20897;-80
2022/07/19 08:37:44;;;;;;;8.60;4.08;;;;;;;28.51;38.44;99471.30;2169561;81;20933;-79
2022/07/19 08:40:44;;;;;;;73.40;8.05;;;;;;;28.59;37.92;99470.43;2168483;82;20901;-78
2022/07/19 08:43:45;;;;;;;6.92;4.10;;;;;;;28.68;38.00;99466.42;2168177;81;21080;-79
2022/07/19 08:46:45;;;;;;;7.95;3.90;;;;;;;28.95;37.64;99465.00;2168747;81;20964;-79
2022/07/19 08:49:46;;;;;;;6.17;2.70;;;;;;;29.03;34.94;99462.77;2168384;82;20929;-79
2022/07/19 08:52:46;;;;;;;7.95;3.42;;;;;;;28.85;35.59;99460.59;2168980;81;21075;-79
2022/07/19 08:55:47;;;;;;;5.30;2.80;;;;;;;28.65;35.21;99457.19;2168643;81;20917;-80
2022/07/19 08:58:47;;;;;;;5.87;2.77;;;;;;;28.67;35.35;99458.84;2168965;81;20953;-79
2022/07/19 09:01:47;;;;;;;7.33;2.62;;;;;;;28.77;33.80;99459.23;2169270;81;20999;-80
2022/07/19 09:04:47;;;;;;;6.92;2.75;;;;;;;28.98;34.82;99453.22;2169368;81;20921;-78
2022/07/19 09:07:48;;;;;;;5.78;2.60;;;;;;;29.39;33.54;99450.95;2169031;81;20965;-79
2022/07/19 09:11:33;;;;;;;5.25;3.10;;;;;;;29.39;33.54;99450.95;2169955;81;21370;-79
2022/07/19 09:13:49;;;;;;;4.92;2.98;;;;;;;29.63;32.80;99448.30;2169965;81;20956;-79
2022/07/19 09:16:52;;;;;;;13.25;3.40;;;;;;;29.65;32.00;99447.73;2169147;82;20956;-79
2022/07/19 09:19:52;;;;;;;4.17;2.50;;;;;;;29.84;32.84;99449.38;2159881;82;20972;-80
2022/07/19 09:22:52;;;;;;;6.15;3.08;;;;;;;29.93;32.24;99451.53;2168438;81;21369;-81
2022/07/19 09:25:52;;;;;;;8.53;3.17;;;;;;;30.11;32.12;99443.29;2168429;81;20949;-80
2022/07/19 09:28:53;;;;;;;3.87;2.80;;;;;;;30.21;31.71;99440.92;2169055;81;20917;-81
2022/07/19 09:31:53;;;;;;;14.68;3.30;;;;;;;30.61;30.82;99433.20;2168335;82;21001;-81
2022/07/19 09:34:54;;;;;;;5.75;3.60;;;;;;;30.61;30.82;99433.20;2168533;81;20901;-80
2022/07/19 09:37:56;;;;;;;6.05;3.08;;;;;;;30.86;31.23;99438.82;2158583;82;20894;-80
2022/07/19 09:40:56;;;;;;;12.33;2.87;;;;;;;30.83;30.09;99430.92;2167819;81;20941;-81
2022/07/19 09:43:58;;;;;;;5.03;2.92;;;;;;;30.73;29.93;99431.11;2167734;82;21113;-79
2022/07/19 09:46:57;;;;;;;5.40;2.72;;;;;;;30.78;27.95;99432.17;2168396;81;21351;-81
2022/07/19 09:49:57;;;;;;;4.85;2.70;;;;;;;30.52;29.69;99431.91;2168682;82;20972;-78
2022/07/19 09:52:58;;;;;;;5.97;2.87;;;;;;;30.20;29.37;99427.07;2168588;81;20980;-80
2022/07/19 09:55:58;;;;;;;6.87;3.47;;;;;;;30.00;29.31;99426.86;2168537;81;20960;-79
2022/07/19 09:58:59;;;;;;;7.58;3.22;;;;;;;30.12;30.45;99426.66;2168533;81;20929;-80
2022/07/19 10:01:59;;;;;;;4.95;2.85;;;;;;;30.35;29.13;99419.45;2166946;81;20933;-79
2022/07/19 10:04:59;;;;;;;12.20;3.00;;;;;;;30.11;28.77;99422.23;2167510;81;20976;-78
2022/07/19 10:08:00;;;;;;;5.92;3.17;;;;;;;29.99;29.09;99424.27;2169289;81;20909;-79
2022/07/19 10:11:00;;;;;;;6.50;2.80;;;;;;;30.03;30.08;99423.16;2169843;81;21336;-79
2022/07/19 10:14:01;;;;;;;4.70;2.77;;;;;;;30.09;29.72;99418.77;2169600;81;20985;-80
2022/07/19 10:17:01;;;;;;;5.05;3.02;;;;;;;30.26;29.82;99413.72;2169673;81;20961;-79
2022/07/19 10:20:02;;;;;;;6.60;2.98;;;;;;;30.58;29.95;99412.67;2170246;82;20949;-78
2022/07/19 10:23:02;;;;;;;3.70;2.67;;;;;;;30.52;29.53;99409.48;2169812;81;20949;-79
2022/07/19 10:26:02;;;;;;;6.87;3.17;;;;;;;30.59;29.76;99406.84;2169680;81;21312;-79
2022/07/19 10:29:03;;;;;;;7.35;2.98;;;;;;;30.80;29.42;99399.26;2168901;81;20965;-77
2022/07/19 10:32:03;;;;;;;311.52;19.80;;;;;;;30.97;30.03;99408.50;2168018;81;20945;-80
2022/07/19 10:35:04;;;;;;;13.10;3.25;;;;;;;31.10;28.97;99399.16;2168648;81;21099;-79
2022/07/19 10:38:04;;;;;;;6.92;3.22;;;;;;;31.17;29.29;99393.30;2169127;81;21553;-78
2022/07/19 10:41:05;;;;;;;7.72;3.00;;;;;;;31.11;29.16;99398.19;2169152;81;20886;-79
2022/07/19 10:44:05;;;;;;;5.55;2.60;;;;;;;31.13;29.02;99393.56;2168535;81;21019;-79
2022/07/19 10:47:05;;;;;;;5.10;2.65;;;;;;;31.05;26.77;99400.31;2168859;81;20975;-80
2022/07/19 10:50:06;;;;;;;7.47;2.90;;;;;;;30.86;28.18;99402.92;2169146;80;21367;-78
2022/07/19 10:53:06;;;;;;;3.80;2.98;;;;;;;30.98;26.93;99396.27;2167949;81;21633;-78
2022/07/19 10:56:07;;;;;;;3.35;2.72;;;;;;;30.99;26.58;99399.84;2168288;81;21293;-79
2022/07/19 10:59:07;;;;;;;3.58;2.75;;;;;;;30.95;27.28;99391.55;2167894;81;20874;-78
2022/07/19 11:02:07;;;;;;;11.28;3.10;;;;;;;30.83;26.75;99400.41;2167668;82;20921;-80
2022/07/19 11:05:08;;;;;;;6.58;2.92;;;;;;;30.69;27.77;99395.88;2168383;82;20988;-79
2022/07/19 11:08:08;;;;;;;6.35;3.37;;;;;;;30.68;27.17;99395.50;2168016;81;20953;-80
2022/07/19 11:11:09;;;;;;;7.85;3.22;;;;;;;30.59;27.05;99387.98;2167976;81;20956;-79
2022/07/19 11:14:09;;;;;;;6.90;2.62;;;;;;;30.70;27.87;99386.84;2167805;81;21008;-79
2022/07/19 11:17:10;;;;;;;5.67;2.75;;;;;;;31.23;27.68;99382.64;2169496;82;21364;-79
2022/07/19 11:20:10;;;;;;;3.20;2.60;;;;;;;31.23;27.68;99382.64;2168570;81;20956;-79
2022/07/19 11:23:11;;;;;;;4.95;3.40;;;;;;;31.49;27.04;99383.16;2168284;82;20988;-79
2022/07/19 11:26:11;;;;;;;6.95;3.10;;;;;;;31.67;26.97;99384.65;2168234;81;21119;-78
2022/07/19 11:29:11;;;;;;;6.15;3.02;;;;;;;31.60;27.02;99374.36;2167800;81;20925;-79
2022/07/19 11:32:12;;;;;;;5.58;3.02;;;;;;;31.62;28.09;99373.30;2167850;81;21359;-78
2022/07/19 11:35:14;;;;;;;7.35;3.25;;;;;;;31.76;26.71;99372.89;2167790;82;20902;-80
2022/07/19 11:38:13;;;;;;;5.42;3.17;;;;;;;31.63;27.37;99375.52;2167896;81;21295;-78
2022/07/19 11:41:13;;;;;;;10.05;2.80;;;;;;;31.48;26.47;99370.64;2169658;81;20953;-80
2022/07/19 11:44:14;;;;;;;4.37;3.33;;;;;;;31.40;27.04;99366.72;2169315;81;20988;-80
2022/07/19 11:47:14;;;;;;;3.92;3.00;;;;;;;31.54;27.56;99367.54;2168579;81;20917;-80
2022/07/19 11:50:14;;;;;;;3.52;2.83;;;;;;;31.60;27.17;99360.39;2168160;81;21111;-80
2022/07/19 11:53:15;;;;;;;3.62;3.20;;;;;;;31.73;27.17;99362.30;2168059;81;20889;-81
2022/07/19 11:56:15;;;;;;;9.03;3.30;;;;;;;31.78;26.69;99356.98;2168920;81;20918;-80
2022/07/19 11:59:16;;;;;;;3.92;3.00;;;;;;;31.94;26.98;99352.77;2169063;81;20954;-80
2022/07/19 12:02:16;;;;;;;3.80;2.95;;;;;;;32.14;26.61;99349.59;2169244;81;20953;-81
2022/07/19 12:05:16;;;;;;;5.17;3.85;;;;;;;32.22;26.24;99348.58;2168304;82;20976;-80
2022/07/19 12:08:17;;;;;;;5.35;3.37;;;;;;;32.16;27.01;99346.30;2168417;80;20893;-80
2022/07/19 12:11:17;;;;;;;6.83;3.45;;;;;;;32.36;26.86;99340.04;2168395;81;21293;-80
2022/07/19 12:14:18;;;;;;;8.78;3.10;;;;;;;32.46;25.84;99342.48;2168752;81;21012;-80
2022/07/19 12:17:18;;;;;;;7.67;3.40;;;;;;;32.34;26.19;99340.63;2168383;81;21012;-79
2022/07/19 12:20:18;;;;;;;6.40;3.12;;;;;;;32.30;26.64;99338.63;2168404;81;20980;-80
2022/07/19 12:23:19;;;;;;;7.08;3.35;;;;;;;32.04;25.04;99347.11;2168234;81;21324;-80
2022/07/19 12:26:19;;;;;;;48.80;5.40;;;;;;;31.81;26.31;99335.66;2170028;81;20969;-79
2022/07/19 12:29:20;;;;;;;6.97;3.08;;;;;;;31.92;26.49;99332.62;2169359;82;20925;-81
2022/07/19 12:32:20;;;;;;;9.83;3.02;;;;;;;31.87;26.23;99331.20;2169196;81;20929;-80
2022/07/19 12:35:21;;;;;;;4.22;3.00;;;;;;;32.00;26.58;99333.45;2168883;81;21371;-80
2022/07/19 12:38:21;;;;;;;7.85;2.72;;;;;;;32.09;25.97;99328.80;2169083;81;20956;-80
2022/07/19 12:41:21;;;;;;;7.30;3.30;;;;;;;32.09;25.97;99328.80;2170021;81;20964;-81
2022/07/19 12:44:22;;;;;;;5.45;3.20;;;;;;;32.20;26.54;99321.30;2169961;81;20976;-79
2022/07/19 12:47:22;;;;;;;7.20;3.12;;;;;;;32.09;26.32;99323.39;2170424;82;20941;-81
2022/07/19 12:50:22;;;;;;;4.37;3.10;;;;;;;32.14;26.12;99321.24;2171148;81;20996;-80
2022/07/19 12:53:23;;;;;;;6.95;3.20;;;;;;;32.12;26.59;99323.18;2171641;81;21103;-80
2022/07/19 12:56:23;;;;;;;6.67;2.80;;;;;;;32.18;25.97;99314.66;2171181;81;20933;-80
2022/07/19 12:59:39;;;;;;;7.78;3.20;;;;;;;31.91;26.06;99312.47;2171181;82;20949;-80
2022/07/19 13:02:39;;;;;;;7.45;2.80;;;;;;;31.86;26.33;99311.92;2171014;81;20897;-81
2022/07/19 13:05:40;;;;;;;5.30;2.65;;;;;;;31.98;26.06;99311.09;2171173;82;20925;-80
2022/07/19 13:08:40;;;;;;;6.08;3.00;;;;;;;32.09;25.77;99294.17;2171256;82;20913;-82
2022/07/19 13:11:40;;;;;;;4.28;2.90;;;;;;;32.26;26.05;99296.11;2170470;81;21325;-81
2022/07/19 13:14:41;;;;;;;4.20;2.87;;;;;;;32.36;25.51;99289.58;2169352;81;20995;-80
2022/07/19 13:17:41;;;;;;;3.25;2.90;;;;;;;32.30;26.16;99296.27;2169844;81;20900;-80
2022/07/19 13:20:42;;;;;;;4.17;2.95;;;;;;;32.19;25.70;99294.78;2170214;81;20965;-80
2022/07/19 13:23:42;;;;;;;7.47;3.05;;;;;;;32.25;25.63;99285.42;2169062;81;21051;-80
2022/07/19 13:26:42;;;;;;;5.70;2.92;;;;;;;32.56;25.59;99288.16;2168084;81;20992;-79
2022/07/19 13:29:43;;;;;;;15.13;2.90;;;;;;;32.73;25.29;99282.41;2168277;82;20909;-79
2022/07/19 13:32:43;;;;;;;6.78;2.98;;;;;;;32.52;25.21;99300.16;2167554;81;20933;-80
2022/07/19 13:35:44;;;;;;;5.00;3.20;;;;;;;32.24;25.63;99285.90;2168017;81;20933;-80
2022/07/19 13:38:44;;;;;;;29.60;4.67;;;;;;;32.16;25.58;99280.62;2168292;81;20965;-80
2022/07/19 13:41:44;;;;;;;6.95;3.05;;;;;;;32.23;25.57;99281.44;2167823;82;21296;-81
2022/07/19 13:44:45;;;;;;;7.87;3.15;;;;;;;32.28;25.26;99280.66;2168064;82;21031;-80
2022/07/19 13:47:45;;;;;;;10.68;3.15;;;;;;;32.36;25.23;99272.50;2169798;81;20909;-81
2022/07/19 13:50:46;;;;;;;9.30;3.15;;;;;;;32.39;25.03;99269.59;2168687;82;20937;-80
2022/07/19 13:53:48;;;;;;;4.95;3.60;;;;;;;32.46;25.07;99260.94;2168477;81;20938;-80
2022/07/19 13:56:47;;;;;;;3.70;2.67;;;;;;;32.55;25.41;99262.98;2168947;81;20944;-80
2022/07/19 13:59:47;;;;;;;7.17;3.08;;;;;;;32.70;25.50;99258.79;2169260;81;20909;-80
2022/07/19 14:02:48;;;;;;;4.42;2.90;;;;;;;32.87;25.35;99251.20;2168587;81;20940;-81
2022/07/19 14:05:48;;;;;;;4.92;2.85;;;;;;;32.86;24.98;99252.19;2169175;82;20937;-81
2022/07/19 14:08:48;;;;;;;3.87;2.65;;;;;;;33.02;24.93;99247.90;2169691;82;20881;-81